Time;durP1;ratioP1;P1;durP2;ratioP2;P2;SDS_P1;SDS_P2;PMS_P1;PMS_P2;Temp;Humidity;BMP_temperature;BMP_pressure;BME280_temperature;BME280_humidity;BME280_pressure;Samples;Min_cycle;Max_cycle;Signal;HPM_P1;HPM_P2
2022/07/02 00:02:25;;;;;;;;;;;;;;;15.09;50.63281;102129.4;;;;-84
2022/07/02 00:07:25;;;;;;;;;;;;;;;15.05;50.62793;102129.4;;;;-85
2022/07/02 00:11:44;;;;;;;6.5;1.3;;;;;;;;;;;;;-83
2022/07/02 00:12:27;;;;;;;;;;;;;;;15.02;50.77051;102130.3;;;;-84
2022/07/02 00:17:31;;;;;;;;;;;;;;;14.98;51.58984;102138.8;;;;-82
2022/07/02 00:22:30;;;;;;;;;;;;;;;14.94;51.50586;102137.1;;;;-83
2022/07/02 00:27:27;;;;;;;;;;;;;;;14.93;52.02344;102137.7;;;;-84
2022/07/02 00:32:29;;;;;;;;;;;;;;;14.92;52.74219;102137;;;;-85
2022/07/02 00:37:29;;;;;;;;;;;;;;;14.91;53.06934;102134.1;;;;-84
2022/07/02 00:41:43;;;;;;;5.2;1.5;;;;;;;;;;;;;-86
2022/07/02 00:42:29;;;;;;;;;;;;;;;14.89;53.19043;102142.1;;;;-83
2022/07/02 00:47:28;;;;;;;;;;;;;;;14.87;53.2998;102141.4;;;;-83
2022/07/02 00:52:26;;;;;;;;;;;;;;;14.87;53.18848;102137.3;;;;-84
2022/07/02 00:57:30;;;;;;;;;;;;;;;14.84;54.1748;102136.2;;;;-83
2022/07/02 01:02:30;;;;;;;;;;;;;;;14.87;53.81836;102135.7;;;;-84
2022/07/02 01:07:30;;;;;;;;;;;;;;;14.87;54.4375;102128.9;;;;-84
2022/07/02 01:11:45;;;;;;;4.3;1.4;;;;;;;;;;;;;-83
2022/07/02 01:12:25;;;;;;;;;;;;;;;14.86;54.64063;102120.4;;;;-85
2022/07/02 01:17:35;;;;;;;;;;;;;;;14.85;54.7168;102120;;;;-83
2022/07/02 01:22:26;;;;;;;;;;;;;;;14.82;55.37793;102117.9;;;;-83
2022/07/02 01:27:31;;;;;;;;;;;;;;;14.81;55.87207;102117.9;;;;-84
2022/07/02 01:32:35;;;;;;;;;;;;;;;14.79;55.67773;102120.5;;;;-84
2022/07/02 01:37:40;;;;;;;;;;;;;;;14.8;56.06055;102119.6;;;;-83
2022/07/02 01:41:49;;;;;;;6.1;1.3;;;;;;;;;;;;;-83
2022/07/02 01:42:25;;;;;;;;;;;;;;;14.78;55.87988;102122.3;;;;-84
2022/07/02 01:47:25;;;;;;;;;;;;;;;14.78;55.81055;102125.1;;;;-84
2022/07/02 01:52:27;;;;;;;;;;;;;;;14.74;56.08789;102128.6;;;;-83
2022/07/02 01:57:33;;;;;;;;;;;;;;;14.75;56.33594;102124.1;;;;-84
2022/07/02 02:02:25;;;;;;;;;;;;;;;14.73;56.66016;102118.6;;;;-83
2022/07/02 02:07:39;;;;;;;;;;;;;;;14.71;56.15137;102115.9;;;;-86
2022/07/02 02:11:51;;;;;;;3.2;1.1;;;;;;;;;;;;;-84
2022/07/02 02:12:25;;;;;;;;;;;;;;;14.66;56.61816;102114.6;;;;-83
2022/07/02 02:17:31;;;;;;;;;;;;;;;14.64;56.66016;102112.4;;;;-84
2022/07/02 02:22:25;;;;;;;;;;;;;;;14.63;56.5127;102111.1;;;;-82
2022/07/02 02:27:30;;;;;;;;;;;;;;;14.59;56.62012;102105.7;;;;-84
2022/07/02 02:32:26;;;;;;;;;;;;;;;14.56;56.86328;102105.3;;;;-84
2022/07/02 02:37:34;;;;;;;;;;;;;;;14.52;56.84668;102107.7;;;;-82
2022/07/02 02:41:53;;;;;;;4;1.1;;;;;;;;;;;;;-83
2022/07/02 02:42:28;;;;;;;;;;;;;;;14.52;56.75684;102115.7;;;;-83
2022/07/02 02:47:25;;;;;;;;;;;;;;;14.48;56.69629;102117;;;;-83
2022/07/02 02:52:26;;;;;;;;;;;;;;;14.44;57.26367;102112.4;;;;-84
2022/07/02 02:57:31;;;;;;;;;;;;;;;14.44;57.3418;102119.8;;;;-85
2022/07/02 03:02:26;;;;;;;;;;;;;;;14.41;57.43945;102124.1;;;;-84
2022/07/02 03:07:31;;;;;;;;;;;;;;;14.38;57.6377;102127.7;;;;-83
2022/07/02 03:11:55;;;;;;;3.9;0.9;;;;;;;;;;;;;-84
2022/07/02 03:12:25;;;;;;;;;;;;;;;14.37;57.61328;102130;;;;-85
2022/07/02 03:17:28;;;;;;;;;;;;;;;14.34;57.14941;102124.8;;;;-84
2022/07/02 03:22:26;;;;;;;;;;;;;;;14.35;57.64453;102126.1;;;;-84
2022/07/02 03:27:30;;;;;;;;;;;;;;;14.32;57.71973;102131.6;;;;-84
2022/07/02 03:32:29;;;;;;;;;;;;;;;14.3;57.50293;102130.1;;;;-84
2022/07/02 03:37:28;;;;;;;;;;;;;;;14.29;57.80664;102130.3;;;;-83
2022/07/02 03:41:55;;;;;;;4.7;1.1;;;;;;;;;;;;;-84
2022/07/02 03:42:39;;;;;;;;;;;;;;;14.26;57.81445;102135.5;;;;-83
2022/07/02 03:47:26;;;;;;;;;;;;;;;14.26;58.16113;102135.7;;;;-83
2022/07/02 03:52:36;;;;;;;;;;;;;;;14.25;58.25;102135.9;;;;-83
2022/07/02 03:57:34;;;;;;;;;;;;;;;14.24;58.0127;102130.9;;;;-82
2022/07/02 04:02:30;;;;;;;;;;;;;;;14.23;58.1123;102126;;;;-84
2022/07/02 04:07:26;;;;;;;;;;;;;;;14.2;58.74902;102138.7;;;;-84
2022/07/02 04:11:53;;;;;;;3.3;1;;;;;;;;;;;;;-83
2022/07/02 04:12:27;;;;;;;;;;;;;;;14.21;58.37988;102145.3;;;;-83
2022/07/02 04:17:31;;;;;;;;;;;;;;;14.23;58.60645;102149.5;;;;-84
2022/07/02 04:22:28;;;;;;;;;;;;;;;14.26;59.08203;102147.4;;;;-85
2022/07/02 04:27:31;;;;;;;;;;;;;;;14.25;59.31738;102145.1;;;;-86
2022/07/02 04:32:26;;;;;;;;;;;;;;;14.27;59.27441;102140;;;;-84
2022/07/02 04:37:28;;;;;;;;;;;;;;;14.28;59.5459;102148.6;;;;-84
2022/07/02 04:42:02;;;;;;;4.9;1.1;;;;;;;;;;;;;-84
2022/07/02 04:42:25;;;;;;;;;;;;;;;14.32;59.28125;102152.5;;;;-83
2022/07/02 04:47:38;;;;;;;;;;;;;;;14.24;59.41797;102137.7;;;;-84
2022/07/02 04:52:25;;;;;;;;;;;;;;;14.39;59.78516;102152.5;;;;-84
2022/07/02 04:57:25;;;;;;;;;;;;;;;14.4;59.67285;102152.5;;;;-86
2022/07/02 05:02:30;;;;;;;;;;;;;;;14.43;59.72461;102153.6;;;;-84
2022/07/02 05:07:30;;;;;;;;;;;;;;;14.5;60.69922;102153.7;;;;-84
2022/07/02 05:12:00;;;;;;;4.6;1.2;;;;;;;;;;;;;-84
2022/07/02 05:12:26;;;;;;;;;;;;;;;14.55;60.95215;102149.4;;;;-84
2022/07/02 05:17:28;;;;;;;;;;;;;;;14.6;61.34082;102148.4;;;;-83
2022/07/02 05:22:29;;;;;;;;;;;;;;;14.68;62.19531;102146;;;;-83
2022/07/02 05:27:35;;;;;;;;;;;;;;;14.99;61.51953;102144.7;;;;-84
2022/07/02 05:32:31;;;;;;;;;;;;;;;15.58;60.27246;102147.8;;;;-85
2022/07/02 05:37:26;;;;;;;;;;;;;;;16.41;59.96973;102148.9;;;;-82
2022/07/02 05:41:58;;;;;;;3.3;1.1;;;;;;;;;;;;;-84
2022/07/02 05:42:26;;;;;;;;;;;;;;;17.21;58.63184;102155.9;;;;-83
2022/07/02 05:47:28;;;;;;;;;;;;;;;17.9;57.09082;102165;;;;-85
2022/07/02 05:52:30;;;;;;;;;;;;;;;18.56;55.84668;102169.5;;;;-83
2022/07/02 05:57:28;;;;;;;;;;;;;;;19.06;54.95605;102169.4;;;;-85
2022/07/02 06:02:25;;;;;;;;;;;;;;;19.55;53.58301;102167.6;;;;-84
2022/07/02 06:12:00;;;;;;;6.1;1.3;;;;;;;;;;;;;-83
2022/07/02 06:12:25;;;;;;;;;;;;;;;20.53;52.0332;102163.6;;;;-84
2022/07/02 06:17:26;;;;;;;;;;;;;;;20.97;51.69629;102164.5;;;;-84
2022/07/02 06:22:34;;;;;;;;;;;;;;;21.27;51.11426;102165.8;;;;-83
2022/07/02 06:27:30;;;;;;;;;;;;;;;21.64;50.40137;102171;;;;-84
2022/07/02 06:32:31;;;;;;;;;;;;;;;21.96;49.56738;102167.3;;;;-85
2022/07/02 06:37:31;;;;;;;;;;;;;;;22.23;49.4248;102175;;;;-82
2022/07/02 06:42:32;;;;;;;;;;;;;;;22.51;48.65234;102165.7;;;;-84
2022/07/02 06:47:30;;;;;;;;;;;;;;;22.93;48.04297;102188.1;;;;-85
2022/07/02 06:52:26;;;;;;;;;;;;;;;23.18;47.41406;102201.2;;;;-85
2022/07/02 06:57:25;;;;;;;;;;;;;;;23.45;46.94824;102207.5;;;;-83
2022/07/02 07:02:27;;;;;;;;;;;;;;;23.66;46.40527;102208.3;;;;-84
2022/07/02 07:07:36;;;;;;;;;;;;;;;23.89;46.03711;102214.4;;;;-84
2022/07/02 07:12:04;;;;;;;4.7;1;;;;;;;;;;;;;-85
2022/07/02 07:12:25;;;;;;;;;;;;;;;24.13;45.27832;102213.2;;;;-83
2022/07/02 07:17:26;;;;;;;;;;;;;;;24.24;44.71289;102210.9;;;;-83
2022/07/02 07:22:26;;;;;;;;;;;;;;;24.4;44.42871;102205.4;;;;-83
2022/07/02 07:27:27;;;;;;;;;;;;;;;24.65;43.86426;102211.8;;;;-85
2022/07/02 07:32:32;;;;;;;;;;;;;;;24.88;43.34375;102210.8;;;;-82
2022/07/02 07:37:28;;;;;;;;;;;;;;;25.01;42.90527;102209.4;;;;-85
2022/07/02 07:42:09;;;;;;;4.4;1;;;;;;;;;;;;;-83
2022/07/02 07:42:27;;;;;;;;;;;;;;;25.08;42.64648;102205.8;;;;-83
2022/07/02 07:47:27;;;;;;;;;;;;;;;25.21;42.54199;102207.4;;;;-83
2022/07/02 07:52:34;;;;;;;;;;;;;;;25.41;41.93652;102205;;;;-85
2022/07/02 07:57:27;;;;;;;;;;;;;;;25.61;41.49219;102198.7;;;;-84
2022/07/02 08:02:33;;;;;;;;;;;;;;;25.84;41.30469;102191.4;;;;-84
2022/07/02 08:07:28;;;;;;;;;;;;;;;25.97;40.34277;102194.4;;;;-84
2022/07/02 08:12:17;;;;;;;4.6;0.8;;;;;;;;;;;;;-86
2022/07/02 08:12:28;;;;;;;;;;;;;;;26.05;40.1416;102178.8;;;;-84
2022/07/02 08:17:41;;;;;;;;;;;;;;;26.33;39.43457;102194.7;;;;-85
2022/07/02 08:22:34;;;;;;;;;;;;;;;26.48;38.78516;102196.9;;;;-85
2022/07/02 08:27:25;;;;;;;;;;;;;;;26.6;38.50586;102198.2;;;;-85
2022/07/02 08:32:28;;;;;;;;;;;;;;;26.78;37.89355;102187.4;;;;-86
2022/07/02 08:37:25;;;;;;;;;;;;;;;26.9;37.3457;102190.6;;;;-85
2022/07/02 08:42:36;;;;;;;1.4;0.6;;;;;;;;;;;;;-86
2022/07/02 08:43:03;;;;;;;;;;;;;;;27.05;37.03223;102169.7;;;;-84
2022/07/02 08:47:34;;;;;;;;;;;;;;;27.3;36.85449;102182.1;;;;-84
2022/07/02 08:52:34;;;;;;;;;;;;;;;27.51;36.69727;102180.6;;;;-86
2022/07/02 08:57:32;;;;;;;;;;;;;;;27.73;36.18945;102190.8;;;;-85
2022/07/02 09:02:35;;;;;;;;;;;;;;;27.86;35.6416;102185;;;;-86
2022/07/02 09:07:27;;;;;;;;;;;;;;;27.94;35.09961;102182.5;;;;-83
2022/07/02 09:12:23;;;;;;;2;0.6;;;;;;;;;;;;;-85
2022/07/02 09:13:01;;;;;;;;;;;;;;;27.97;34.82227;102161.8;;;;-86
2022/07/02 09:17:33;;;;;;;;;;;;;;;28.19;34.72168;102169.5;;;;-83
2022/07/02 09:22:35;;;;;;;;;;;;;;;28.39;34.02539;102167.1;;;;-84
2022/07/02 09:27:26;;;;;;;;;;;;;;;28.57;33.52441;102160.4;;;;-87
2022/07/02 09:32:25;;;;;;;;;;;;;;;28.71;32.96191;102162;;;;-77
2022/07/02 09:37:25;;;;;;;;;;;;;;;28.75;33.20996;102162.2;;;;-79
2022/07/02 09:42:30;;;;;;;1.9;0.5;;;;;;;;;;;;;-78
2022/07/02 09:42:43;;;;;;;;;;;;;;;28.86;32.87891;102162.2;;;;-77
2022/07/02 09:47:32;;;;;;;;;;;;;;;28.9;32.58984;102159;;;;-78
2022/07/02 09:52:25;;;;;;;;;;;;;;;29.08;32.68457;102154.7;;;;-78
2022/07/02 09:57:26;;;;;;;;;;;;;;;29.36;32.20117;102155.2;;;;-78
2022/07/02 10:02:29;;;;;;;;;;;;;;;29.6;31.9375;102155.4;;;;-77
2022/07/02 10:07:27;;;;;;;;;;;;;;;29.63;31.01367;102154.8;;;;-78
2022/07/02 10:12:24;;;;;;;;;;;;;;;29.81;31.03809;102162;;;;-78
2022/07/02 10:12:33;;;;;;;1.5;0.6;;;;;;;;;;;;;-78
2022/07/02 10:17:25;;;;;;;;;;;;;;;29.79;31.03613;102153.1;;;;-79
2022/07/02 10:22:25;;;;;;;;;;;;;;;29.79;30.97754;102145.4;;;;-77
2022/07/02 10:27:25;;;;;;;;;;;;;;;29.79;31.02441;102149.7;;;;-78
2022/07/02 10:32:26;;;;;;;;;;;;;;;29.62;30.56738;102152.3;;;;-79
2022/07/02 10:37:25;;;;;;;;;;;;;;;29.41;30.72949;102141.1;;;;-78
2022/07/02 10:42:24;;;;;;;;;;;;;;;29.22;30.93848;102143.1;;;;-79
2022/07/02 10:42:42;;;;;;;1.5;0.4;;;;;;;;;;;;;-79
2022/07/02 10:47:29;;;;;;;;;;;;;;;28.99;31.09863;102140.4;;;;-79
2022/07/02 10:52:36;;;;;;;;;;;;;;;28.8;31.4707;102134.6;;;;-78
2022/07/02 10:57:24;;;;;;;;;;;;;;;28.57;31.75977;102128.4;;;;-79
2022/07/02 11:02:24;;;;;;;;;;;;;;;28.38;32.03809;102125.2;;;;-78
2022/07/02 11:07:24;;;;;;;;;;;;;;;28.21;32.15527;102123.8;;;;-77
2022/07/02 11:12:26;;;;;;;;;;;;;;;28.16;32.39648;102127.1;;;;-78
2022/07/02 11:12:45;;;;;;;2.8;0.6;;;;;;;;;;;;;-78
2022/07/02 11:17:25;;;;;;;;;;;;;;;28.18;32.63086;102113.2;;;;-79
2022/07/02 11:22:25;;;;;;;;;;;;;;;28.38;32.59863;102118.7;;;;-79
2022/07/02 11:27:24;;;;;;;;;;;;;;;28.75;32.54395;102124.6;;;;-79
2022/07/02 11:32:26;;;;;;;;;;;;;;;29.02;31.5459;102112.8;;;;-78
2022/07/02 11:37:28;;;;;;;;;;;;;;;29.27;31.5625;102110.3;;;;-79
2022/07/02 11:42:35;;;;;;;;;;;;;;;29.32;31.55469;102110.9;;;;-79
2022/07/02 11:42:44;;;;;;;0.9;0.4;;;;;;;;;;;;;-79
2022/07/02 11:47:24;;;;;;;;;;;;;;;29.28;31.52832;102101.5;;;;-78
2022/07/02 11:52:26;;;;;;;;;;;;;;;29.23;31.24414;102096.8;;;;-78
2022/07/02 11:57:34;;;;;;;;;;;;;;;29.11;30.65039;102100.5;;;;-77
2022/07/02 12:02:24;;;;;;;;;;;;;;;28.97;30.90918;102093.5;;;;-78
2022/07/02 12:07:24;;;;;;;;;;;;;;;28.91;31.02344;102100.6;;;;-79
2022/07/02 12:12:26;;;;;;;;;;;;;;;28.84;31.00586;102090.7;;;;-77
2022/07/02 12:12:42;;;;;;;2;0.4;;;;;;;;;;;;;-76
2022/07/02 12:17:24;;;;;;;;;;;;;;;28.82;30.96973;102084.3;;;;-78
2022/07/02 12:22:33;;;;;;;;;;;;;;;28.91;31.3623;102083.6;;;;-78
2022/07/02 12:27:26;;;;;;;;;;;;;;;29.08;31.22168;102076.1;;;;-77
2022/07/02 12:32:26;;;;;;;;;;;;;;;29.28;31.59863;102069.7;;;;-79
2022/07/02 12:37:28;;;;;;;;;;;;;;;29.4;31.73535;102071.2;;;;-78
2022/07/02 12:42:26;;;;;;;;;;;;;;;29.53;31.3584;102068;;;;-79
2022/07/02 12:42:51;;;;;;;1.5;0.5;;;;;;;;;;;;;-78
2022/07/02 12:47:30;;;;;;;;;;;;;;;29.65;31.69434;102059.7;;;;-79
2022/07/02 12:52:27;;;;;;;;;;;;;;;29.64;31.4834;102061.2;;;;-80
2022/07/02 12:57:25;;;;;;;;;;;;;;;29.59;31.19824;102054.5;;;;-80
2022/07/02 13:02:28;;;;;;;;;;;;;;;29.61;31.17676;102052.2;;;;-80
2022/07/02 13:07:25;;;;;;;;;;;;;;;29.69;31.11133;102051.7;;;;-79
2022/07/02 13:12:25;;;;;;;;;;;;;;;29.67;30.67578;102051.5;;;;-79
2022/07/02 13:12:50;;;;;;;1.7;0.6;;;;;;;;;;;;;-78
2022/07/02 13:17:24;;;;;;;;;;;;;;;29.65;30.86328;102050.8;;;;-79
2022/07/02 13:22:26;;;;;;;;;;;;;;;29.56;30.8457;102041;;;;-78
2022/07/02 13:27:24;;;;;;;;;;;;;;;29.46;30.97852;102047.1;;;;-77
2022/07/02 13:32:24;;;;;;;;;;;;;;;29.28;31.08398;102043.6;;;;-79
2022/07/02 13:37:24;;;;;;;;;;;;;;;29.09;31.43359;102041.8;;;;-78
2022/07/02 13:42:24;;;;;;;;;;;;;;;28.92;31.41016;102034.9;;;;-79
2022/07/02 13:42:55;;;;;;;2.9;0.9;;;;;;;;;;;;;-77
2022/07/02 13:47:24;;;;;;;;;;;;;;;28.8;31.40137;102035.2;;;;-78
2022/07/02 13:52:24;;;;;;;;;;;;;;;28.76;31.64453;102028.4;;;;-78
2022/07/02 13:57:24;;;;;;;;;;;;;;;28.71;31.95703;102024.1;;;;-79
2022/07/02 14:02:24;;;;;;;;;;;;;;;28.7;32.24805;102021.7;;;;-78
2022/07/02 14:07:25;;;;;;;;;;;;;;;28.82;32.80664;102015.5;;;;-78
2022/07/02 14:12:25;;;;;;;;;;;;;;;29.15;33.16895;102015.5;;;;-78
2022/07/02 14:12:58;;;;;;;1.9;1;;;;;;;;;;;;;-79
2022/07/02 14:17:25;;;;;;;;;;;;;;;29.42;32.63965;102006.1;;;;-80
2022/07/02 14:22:29;;;;;;;;;;;;;;;29.51;32.30566;102008.7;;;;-77
2022/07/02 14:27:25;;;;;;;;;;;;;;;29.48;32.81934;102009.6;;;;-79
2022/07/02 14:32:26;;;;;;;;;;;;;;;29.45;33.07422;102010.6;;;;-79
2022/07/02 14:37:26;;;;;;;;;;;;;;;29.4;33.07031;102007.3;;;;-79
2022/07/02 14:42:24;;;;;;;;;;;;;;;29.32;33.12402;102013;;;;-79
2022/07/02 14:43:04;;;;;;;4.9;2.7;;;;;;;;;;;;;-78
2022/07/02 14:47:24;;;;;;;;;;;;;;;29.23;33.06934;102007.5;;;;-78
2022/07/02 14:52:25;;;;;;;;;;;;;;;29.15;32.93457;102002.9;;;;-78
2022/07/02 14:57:25;;;;;;;;;;;;;;;29.12;33.10938;101991.5;;;;-78
2022/07/02 15:02:25;;;;;;;;;;;;;;;29.2;33.02148;101987.2;;;;-78
2022/07/02 15:07:24;;;;;;;;;;;;;;;29.38;33.10449;101986.9;;;;-80
2022/07/02 15:12:24;;;;;;;;;;;;;;;29.5;32.91406;101983.4;;;;-80
2022/07/02 15:13:07;;;;;;;3.3;1.7;;;;;;;;;;;;;-79
2022/07/02 15:17:27;;;;;;;;;;;;;;;29.52;33.02051;101976.5;;;;-79
2022/07/02 15:22:27;;;;;;;;;;;;;;;29.54;32.97559;101973.2;;;;-79
2022/07/02 15:27:24;;;;;;;;;;;;;;;29.64;32.56152;101964.3;;;;-78
2022/07/02 15:32:25;;;;;;;;;;;;;;;29.73;32.60254;101966.9;;;;-78
2022/07/02 15:37:25;;;;;;;;;;;;;;;29.7;32.70605;101963.1;;;;-78
2022/07/02 15:42:27;;;;;;;;;;;;;;;29.63;32.67871;101955.5;;;;-77
2022/07/02 15:43:12;;;;;;;3.2;1.3;;;;;;;;;;;;;-79
2022/07/02 15:47:24;;;;;;;;;;;;;;;29.55;32.625;101956.5;;;;-77
2022/07/02 15:52:26;;;;;;;;;;;;;;;29.57;32.68457;101950.8;;;;-78
2022/07/02 15:57:27;;;;;;;;;;;;;;;29.61;32.7002;101950.2;;;;-79
2022/07/02 16:02:28;;;;;;;;;;;;;;;29.59;32.82715;101946.6;;;;-79
2022/07/02 16:07:26;;;;;;;;;;;;;;;29.52;32.77539;101947.4;;;;-78
2022/07/02 16:12:25;;;;;;;;;;;;;;;29.44;32.80469;101940.9;;;;-78
2022/07/02 16:13:16;;;;;;;10.1;2.8;;;;;;;;;;;;;-79
2022/07/02 16:17:26;;;;;;;;;;;;;;;29.4;32.90723;101935.1;;;;-79
2022/07/02 16:22:24;;;;;;;;;;;;;;;29.35;33.08984;101927.3;;;;-77
2022/07/02 16:27:24;;;;;;;;;;;;;;;29.26;33.24805;101920.7;;;;-78
2022/07/02 16:32:30;;;;;;;;;;;;;;;29.15;33.40332;101923;;;;-79
2022/07/02 16:37:26;;;;;;;;;;;;;;;29.04;33.52441;101926.6;;;;-79
2022/07/02 16:42:25;;;;;;;;;;;;;;;29;33.65039;101922.8;;;;-78
2022/07/02 16:43:23;;;;;;;11.9;5;;;;;;;;;;;;;-78
2022/07/02 16:47:26;;;;;;;;;;;;;;;29.01;33.78027;101909.1;;;;-78
2022/07/02 16:52:26;;;;;;;;;;;;;;;29.01;33.80371;101920;;;;-79
2022/07/02 16:57:27;;;;;;;;;;;;;;;29.01;33.80273;101913.1;;;;-78
2022/07/02 17:02:25;;;;;;;;;;;;;;;28.96;33.84668;101907.7;;;;-80
2022/07/02 17:07:25;;;;;;;;;;;;;;;28.88;33.95605;101901.8;;;;-80
2022/07/02 17:12:25;;;;;;;;;;;;;;;28.77;34.05371;101890.4;;;;-78
2022/07/02 17:13:24;;;;;;;10.1;4.3;;;;;;;;;;;;;-78
2022/07/02 17:17:24;;;;;;;;;;;;;;;28.62;34.20605;101887.7;;;;-77
2022/07/02 17:22:24;;;;;;;;;;;;;;;28.46;34.32227;101894.4;;;;-79
2022/07/02 17:27:24;;;;;;;;;;;;;;;28.27;34.55371;101897.7;;;;-79
2022/07/02 17:32:24;;;;;;;;;;;;;;;28.11;34.84473;101900.4;;;;-78
2022/07/02 17:37:25;;;;;;;;;;;;;;;27.93;35.07617;101903.5;;;;-78
2022/07/02 17:42:24;;;;;;;;;;;;;;;27.74;35.34082;101901.1;;;;-80
2022/07/02 17:43:28;;;;;;;8.1;3.9;;;;;;;;;;;;;-78
2022/07/02 17:47:24;;;;;;;;;;;;;;;27.51;35.68262;101899.9;;;;-78
2022/07/02 17:52:24;;;;;;;;;;;;;;;27.27;35.97949;101893.3;;;;-78
2022/07/02 17:57:24;;;;;;;;;;;;;;;27.05;36.33398;101894.7;;;;-78
2022/07/02 18:02:25;;;;;;;;;;;;;;;26.86;36.44629;101894.2;;;;-80
2022/07/02 18:07:24;;;;;;;;;;;;;;;26.68;36.64063;101892.8;;;;-79
2022/07/02 18:12:25;;;;;;;;;;;;;;;26.5;36.73145;101885.2;;;;-77
2022/07/02 18:13:33;;;;;;;5.8;2.9;;;;;;;;;;;;;-78
2022/07/02 18:17:24;;;;;;;;;;;;;;;26.3;36.92383;101884.3;;;;-78
2022/07/02 18:22:26;;;;;;;;;;;;;;;26.12;36.96777;101878.3;;;;-79
2022/07/02 18:27:25;;;;;;;;;;;;;;;25.93;36.97461;101880.6;;;;-79
2022/07/02 18:32:25;;;;;;;;;;;;;;;25.73;37.15527;101874.4;;;;-79
2022/07/02 18:37:25;;;;;;;;;;;;;;;25.54;37.24414;101863.7;;;;-80
2022/07/02 18:42:24;;;;;;;;;;;;;;;25.37;37.24121;101868.1;;;;-79
2022/07/02 18:43:36;;;;;;;4.4;2.2;;;;;;;;;;;;;-77
2022/07/02 18:47:24;;;;;;;;;;;;;;;25.19;37.28516;101867.2;;;;-78
2022/07/02 18:52:24;;;;;;;;;;;;;;;24.98;37.36035;101855.5;;;;-78
2022/07/02 18:57:24;;;;;;;;;;;;;;;24.78;37.23926;101862.8;;;;-78
2022/07/02 19:02:24;;;;;;;;;;;;;;;24.57;37.44238;101870.8;;;;-80
2022/07/02 19:07:24;;;;;;;;;;;;;;;24.37;37.62109;101872.9;;;;-79
2022/07/02 19:12:25;;;;;;;;;;;;;;;24.16;37.58105;101876.7;;;;-77
2022/07/02 19:13:40;;;;;;;7.7;2.9;;;;;;;;;;;;;-77
2022/07/02 19:17:24;;;;;;;;;;;;;;;23.98;37.6582;101871.1;;;;-76
2022/07/02 19:22:24;;;;;;;;;;;;;;;23.81;37.95605;101873.6;;;;-78
2022/07/02 19:32:32;;;;;;;;;;;;;;;23.46;38.21484;101876.2;;;;-76
2022/07/02 19:37:24;;;;;;;;;;;;;;;23.3;38.37402;101860.8;;;;-76
2022/07/02 19:42:25;;;;;;;;;;;;;;;23.14;38.74121;101864.4;;;;-75
2022/07/02 19:43:43;;;;;;;5;2.1;;;;;;;;;;;;;-76
2022/07/02 19:47:24;;;;;;;;;;;;;;;22.99;38.88965;101861.7;;;;-76
2022/07/02 19:52:24;;;;;;;;;;;;;;;22.86;39.28125;101865;;;;-80
2022/07/02 19:57:26;;;;;;;;;;;;;;;22.71;39.44043;101867.1;;;;-77
2022/07/02 20:02:24;;;;;;;;;;;;;;;22.58;39.64746;101868.8;;;;-79
2022/07/02 20:07:24;;;;;;;;;;;;;;;22.44;39.79688;101868.5;;;;-78
2022/07/02 20:12:24;;;;;;;;;;;;;;;22.32;40.08496;101875.3;;;;-78
2022/07/02 20:13:49;;;;;;;3.9;1.6;;;;;;;;;;;;;-77
2022/07/02 20:17:27;;;;;;;;;;;;;;;22.2;40.33887;101874.5;;;;-77
2022/07/02 20:22:26;;;;;;;;;;;;;;;22.08;40.5918;101879.9;;;;-78
2022/07/02 20:27:24;;;;;;;;;;;;;;;21.95;40.80957;101886.1;;;;-77
2022/07/02 20:32:24;;;;;;;;;;;;;;;21.82;41.12012;101890.5;;;;-79
2022/07/02 20:37:25;;;;;;;;;;;;;;;21.69;41.33789;101890.7;;;;-80
2022/07/02 20:42:24;;;;;;;;;;;;;;;21.56;41.46387;101899.9;;;;-78
2022/07/02 20:43:50;;;;;;;3.4;1.4;;;;;;;;;;;;;-77
2022/07/02 20:47:27;;;;;;;;;;;;;;;21.45;41.70508;101900.1;;;;-74
2022/07/02 20:52:25;;;;;;;;;;;;;;;21.32;41.75098;101894.5;;;;-77
2022/07/02 20:57:24;;;;;;;;;;;;;;;21.2;42.01367;101885.4;;;;-78
2022/07/02 21:02:24;;;;;;;;;;;;;;;21.09;42.29102;101892.2;;;;-79
2022/07/02 21:07:24;;;;;;;;;;;;;;;20.97;42.38184;101883;;;;-78
2022/07/02 21:12:24;;;;;;;;;;;;;;;20.86;42.45313;101878.5;;;;-78
2022/07/02 21:13:58;;;;;;;2.3;1.2;;;;;;;;;;;;;-83
2022/07/02 21:17:28;;;;;;;;;;;;;;;20.76;42.74023;101879.4;;;;-83
2022/07/02 21:22:26;;;;;;;;;;;;;;;20.66;42.79883;101888.6;;;;-82
2022/07/02 21:27:37;;;;;;;;;;;;;;;20.57;43.02051;101882;;;;-81
2022/07/02 21:32:29;;;;;;;;;;;;;;;20.48;43.18262;101880.5;;;;-84
2022/07/02 21:37:27;;;;;;;;;;;;;;;20.39;43.27734;101878.1;;;;-82
2022/07/02 21:42:25;;;;;;;;;;;;;;;20.3;43.36035;101874.9;;;;-82
2022/07/02 21:43:58;;;;;;;2.6;1.2;;;;;;;;;;;;;-83
2022/07/02 21:47:29;;;;;;;;;;;;;;;20.22;43.51172;101876.5;;;;-82
2022/07/02 21:52:31;;;;;;;;;;;;;;;20.13;43.51465;101871;;;;-82
2022/07/02 21:57:25;;;;;;;;;;;;;;;20.07;43.74805;101877.1;;;;-83
2022/07/02 22:07:08;;;;;;;;;;;;;;;19.91;43.96094;101858.2;;;;-83
2022/07/02 22:12:06;;;;;;;;;;;;;;;19.82;43.97559;101849.4;;;;-82
2022/07/02 22:14:04;;;;;;;2.2;1.1;;;;;;;;;;;;;-82
2022/07/02 22:17:03;;;;;;;;;;;;;;;19.72;44.02246;101844.1;;;;-81
2022/07/02 22:22:10;;;;;;;;;;;;;;;19.63;44.21875;101836.5;;;;-84
2022/07/02 22:27:15;;;;;;;;;;;;;;;19.54;44.24414;101839.9;;;;-81
2022/07/02 22:32:08;;;;;;;;;;;;;;;19.45;44.45313;101838;;;;-83
2022/07/02 22:37:03;;;;;;;;;;;;;;;19.36;44.48828;101834.5;;;;-82
2022/07/02 22:42:08;;;;;;;;;;;;;;;19.27;44.63965;101840.4;;;;-84
2022/07/02 22:44:03;;;;;;;2.9;1.3;;;;;;;;;;;;;-82
2022/07/02 22:47:04;;;;;;;;;;;;;;;19.14;44.5918;101838.5;;;;-83
2022/07/02 22:52:17;;;;;;;;;;;;;;;19.01;44.8418;101837.4;;;;-82
2022/07/02 22:57:39;;;;;;;;;;;;;;;18.91;44.94531;101835.8;;;;-83
2022/07/02 23:02:44;;;;;;;;;;;;;;;18.8;45.00293;101837.7;;;;-82
2022/07/02 23:07:43;;;;;;;;;;;;;;;18.68;44.96777;101836.6;;;;-82
2022/07/02 23:12:48;;;;;;;;;;;;;;;18.55;45.27344;101838.4;;;;-83
2022/07/02 23:14:04;;;;;;;2.8;1.3;;;;;;;;;;;;;-83
2022/07/02 23:17:39;;;;;;;;;;;;;;;18.41;45.30469;101837.8;;;;-82
2022/07/02 23:22:58;;;;;;;;;;;;;;;18.28;45.33691;101827.6;;;;-82
2022/07/02 23:27:39;;;;;;;;;;;;;;;18.17;45.60938;101833.3;;;;-82
2022/07/02 23:32:40;;;;;;;;;;;;;;;18.05;45.66602;101831;;;;-84
2022/07/02 23:37:55;;;;;;;;;;;;;;;17.93;45.69922;101828.6;;;;-81
2022/07/02 23:42:46;;;;;;;;;;;;;;;17.84;45.89355;101825.8;;;;-83
2022/07/02 23:44:21;;;;;;;2.1;1.2;;;;;;;;;;;;;-83
2022/07/02 23:47:39;;;;;;;;;;;;;;;17.76;46.02148;101827;;;;-81
2022/07/02 23:52:41;;;;;;;;;;;;;;;17.67;45.91016;101826.1;;;;-83
2022/07/02 23:57:51;;;;;;;;;;;;;;;17.59;46.09473;101819.1;;;;-83
